createdAt,value
2019-03-29T00:00:59.151Z,0
2019-03-29T00:02:09.101Z,0
2019-03-29T00:03:19.029Z,0
2019-03-29T00:04:29.432Z,0
2019-03-29T00:05:39.212Z,0
2019-03-29T00:06:49.136Z,0
2019-03-29T00:07:59.054Z,0
2019-03-29T00:09:09.211Z,0
2019-03-29T00:10:19.130Z,0
2019-03-29T00:11:29.150Z,0
2019-03-29T00:12:39.072Z,0
2019-03-29T00:13:49.886Z,0
2019-03-29T00:14:59.925Z,0
2019-03-29T00:16:09.864Z,0
2019-03-29T00:17:20.441Z,0
2019-03-29T00:18:30.445Z,0
2019-03-29T00:19:40.383Z,0
2019-03-29T00:20:51.243Z,0
2019-03-29T00:22:01.176Z,0
2019-03-29T00:23:12.575Z,0
2019-03-29T00:24:22.551Z,0
2019-03-29T00:25:33.109Z,0
2019-03-29T00:26:43.072Z,0
2019-03-29T00:27:52.989Z,0
2019-03-29T00:29:03.168Z,0
2019-03-29T00:30:13.330Z,0
2019-03-29T00:31:23.251Z,0
2019-03-29T00:32:34.199Z,0
2019-03-29T00:33:44.121Z,0
2019-03-29T00:34:54.041Z,0
2019-03-29T00:36:04.702Z,0
2019-03-29T00:37:14.629Z,0
2019-03-29T00:38:25.604Z,0
2019-03-29T00:39:35.545Z,0
2019-03-29T00:40:45.591Z,0
2019-03-29T00:41:55.750Z,0
2019-03-29T00:43:05.688Z,0
2019-03-29T00:44:16.620Z,0
2019-03-29T00:45:26.540Z,0
2019-03-29T00:46:37.181Z,0
2019-03-29T00:47:47.735Z,0
2019-03-29T00:48:57.655Z,0
2019-03-29T00:50:07.729Z,0
2019-03-29T00:51:17.663Z,0
2019-03-29T00:52:27.591Z,0
2019-03-29T00:53:38.248Z,0
2019-03-29T00:54:48.170Z,0
2019-03-29T00:55:57.840Z,0
2019-03-29T00:57:07.759Z,0
2019-03-29T00:58:17.687Z,0
2019-03-29T00:59:27.620Z,0
2019-03-29T01:00:38.823Z,0
2019-03-29T01:01:48.758Z,0
2019-03-29T01:02:58.678Z,0
2019-03-29T01:04:10.195Z,0
2019-03-29T01:05:20.211Z,0
2019-03-29T01:06:30.867Z,0
2019-03-29T01:07:40.798Z,0
2019-03-29T01:08:50.722Z,0
2019-03-29T01:10:01.614Z,0
2019-03-29T01:11:11.543Z,0
2019-03-29T01:12:22.405Z,0
2019-03-29T01:13:32.360Z,0
2019-03-29T01:14:42.987Z,0
2019-03-29T01:15:53.041Z,0
2019-03-29T01:17:02.960Z,0
2019-03-29T01:18:14.251Z,0
2019-03-29T01:19:24.180Z,0
2019-03-29T01:20:34.099Z,0
2019-03-29T01:21:44.765Z,0
2019-03-29T01:22:54.692Z,0
2019-03-29T01:24:05.446Z,0
2019-03-29T01:25:15.819Z,0
2019-03-29T01:26:26.413Z,0
2019-03-29T01:27:37.035Z,0
2019-03-29T01:28:46.961Z,0
2019-03-29T01:29:56.952Z,0
2019-03-29T01:31:07.054Z,0
2019-03-29T01:32:16.974Z,0
2019-03-29T01:33:27.644Z,0
2019-03-29T01:34:37.314Z,0
2019-03-29T01:35:47.251Z,0
2019-03-29T01:36:58.548Z,0
2019-03-29T01:38:21.017Z,0
2019-03-29T01:39:32.248Z,0
2019-03-29T01:40:42.485Z,0
2019-03-29T01:41:53.079Z,0
2019-03-29T01:43:03.228Z,0
2019-03-29T01:44:13.165Z,0
2019-03-29T01:45:23.095Z,0
2019-03-29T01:46:33.014Z,0
2019-03-29T01:47:42.963Z,0
2019-03-29T01:48:53.778Z,0
2019-03-29T01:50:03.798Z,0
2019-03-29T01:51:13.760Z,0
2019-03-29T01:52:24.741Z,0
2019-03-29T01:53:34.694Z,0
2019-03-29T01:54:45.484Z,0
2019-03-29T01:55:56.057Z,0
2019-03-29T01:57:06.277Z,0
2019-03-29T01:58:16.855Z,0
2019-03-29T01:59:26.776Z,0
2019-03-29T02:00:36.727Z,0
2019-03-29T02:01:46.753Z,0
2019-03-29T02:02:56.671Z,0
2019-03-29T02:04:08.592Z,0
2019-03-29T02:05:18.528Z,0
2019-03-29T02:06:28.454Z,0
2019-03-29T02:07:38.486Z,0
2019-03-29T02:08:48.424Z,0
2019-03-29T02:09:59.276Z,0
2019-03-29T02:11:09.199Z,0
2019-03-29T02:12:18.868Z,0
2019-03-29T02:13:28.901Z,0
2019-03-29T02:14:38.823Z,0
2019-03-29T02:15:48.737Z,0
2019-03-29T02:16:58.683Z,0
2019-03-29T02:18:08.641Z,0
2019-03-29T02:19:18.572Z,0
2019-03-29T02:20:28.690Z,0
2019-03-29T02:21:38.373Z,0
2019-03-29T02:22:48.314Z,0
2019-03-29T02:23:59.465Z,0
2019-03-29T02:25:09.396Z,0
2019-03-29T02:26:19.061Z,0
2019-03-29T02:27:29.632Z,0
2019-03-29T02:28:39.548Z,0
2019-03-29T02:29:49.502Z,0
2019-03-29T02:30:59.768Z,0
2019-03-29T02:32:10.075Z,0
2019-03-29T02:33:20.751Z,0
2019-03-29T02:34:31.080Z,0
2019-03-29T02:35:43.357Z,0
2019-03-29T02:36:53.300Z,0
2019-03-29T02:38:04.104Z,0
2019-03-29T02:39:14.045Z,0
2019-03-29T02:40:25.195Z,0
2019-03-29T02:41:35.161Z,0
2019-03-29T02:42:45.759Z,0
2019-03-29T02:43:55.711Z,0
2019-03-29T02:45:08.226Z,0
2019-03-29T02:46:18.173Z,0
2019-03-29T02:47:29.081Z,0
2019-03-29T02:48:39.115Z,0
2019-03-29T02:49:49.045Z,0
2019-03-29T02:50:58.813Z,0
2019-03-29T02:52:08.828Z,0
2019-03-29T02:53:18.761Z,0
2019-03-29T02:54:28.693Z,0
2019-03-29T02:55:38.635Z,0
2019-03-29T02:56:48.587Z,0
2019-03-29T02:57:58.543Z,0
2019-03-29T02:59:08.345Z,0
2019-03-29T03:00:18.027Z,0
2019-03-29T03:01:27.963Z,0
2019-03-29T03:02:37.994Z,0
2019-03-29T03:03:47.925Z,0
2019-03-29T03:04:57.862Z,0
2019-03-29T03:06:08.250Z,0
2019-03-29T03:07:17.960Z,0
2019-03-29T03:08:32.401Z,0
2019-03-29T03:09:42.748Z,0
2019-03-29T03:10:52.464Z,0
2019-03-29T03:12:02.500Z,0
2019-03-29T03:13:12.196Z,0
2019-03-29T03:14:22.299Z,0
2019-03-29T03:15:32.248Z,0
2019-03-29T03:16:42.187Z,0
2019-03-29T03:17:52.141Z,0
2019-03-29T03:19:02.095Z,0
2019-03-29T03:20:16.985Z,0
2019-03-29T03:21:26.959Z,0
2019-03-29T03:22:36.647Z,0
2019-03-29T03:23:46.681Z,0
2019-03-29T03:24:56.678Z,0
2019-03-29T03:26:06.716Z,0
2019-03-29T03:27:16.645Z,0
2019-03-29T03:28:26.641Z,0
2019-03-29T03:29:36.666Z,0
2019-03-29T03:30:46.688Z,0
2019-03-29T03:31:56.723Z,0
2019-03-29T03:33:06.805Z,0
2019-03-29T03:34:16.787Z,0
2019-03-29T03:35:27.103Z,0
2019-03-29T03:36:37.064Z,0
2019-03-29T03:37:47.121Z,0
2019-03-29T03:38:57.063Z,0
2019-03-29T03:40:06.994Z,0
2019-03-29T03:41:17.046Z,0
2019-03-29T03:42:26.989Z,0
2019-03-29T03:43:36.957Z,0
2019-03-29T03:44:46.885Z,0
2019-03-29T03:45:56.835Z,0
2019-03-29T03:47:06.903Z,0
2019-03-29T03:48:16.907Z,0
2019-03-29T03:49:26.599Z,0
2019-03-29T03:50:36.531Z,0
2019-03-29T03:51:46.545Z,0
2019-03-29T03:52:56.628Z,0
2019-03-29T03:54:06.577Z,0
2019-03-29T03:55:16.645Z,0
2019-03-29T03:56:26.583Z,0
2019-03-29T03:57:36.516Z,0
2019-03-29T03:58:46.645Z,0
2019-03-29T03:59:56.636Z,0
2019-03-29T04:01:06.580Z,0
2019-03-29T04:02:16.518Z,0
2019-03-29T04:03:26.514Z,0
2019-03-29T04:04:40.174Z,0
2019-03-29T04:05:50.118Z,0
2019-03-29T04:06:59.839Z,0
2019-03-29T04:08:09.785Z,0
2019-03-29T04:09:19.731Z,0
2019-03-29T04:10:29.672Z,0
2019-03-29T04:11:39.387Z,0
2019-03-29T04:12:49.075Z,0
2019-03-29T04:13:59.015Z,0
2019-03-29T04:15:08.961Z,0
2019-03-29T04:16:19.007Z,4
2019-03-29T04:17:28.995Z,4
2019-03-29T04:18:38.975Z,4
2019-03-29T04:19:48.919Z,4
2019-03-29T04:20:58.875Z,4
2019-03-29T04:22:09.016Z,4
2019-03-29T04:23:19.061Z,4
2019-03-29T04:24:29.042Z,8
2019-03-29T04:25:38.979Z,8
2019-03-29T04:26:48.944Z,12
2019-03-29T04:27:58.624Z,12
2019-03-29T04:29:12.328Z,12
2019-03-29T04:30:22.020Z,16
2019-03-29T04:31:31.703Z,20
2019-03-29T04:32:41.675Z,24
2019-03-29T04:33:51.713Z,28
2019-03-29T04:35:01.652Z,32
2019-03-29T04:36:11.677Z,36
2019-03-29T04:37:21.607Z,44
2019-03-29T04:38:31.535Z,48
2019-03-29T04:39:41.571Z,52
2019-03-29T04:40:51.508Z,64
2019-03-29T04:42:01.463Z,68
2019-03-29T04:43:11.417Z,80
2019-03-29T04:44:21.357Z,88
2019-03-29T04:45:31.389Z,96
2019-03-29T04:46:41.325Z,108
2019-03-29T04:47:51.250Z,120
2019-03-29T04:49:01.186Z,128
2019-03-29T04:50:11.175Z,144
2019-03-29T04:51:21.202Z,152
2019-03-29T04:52:30.904Z,168
2019-03-29T04:53:40.832Z,180
2019-03-29T04:54:50.751Z,192
2019-03-29T04:56:00.676Z,208
2019-03-29T04:57:10.599Z,220
2019-03-29T04:58:20.516Z,240
2019-03-29T04:59:30.439Z,252
2019-03-29T05:00:40.365Z,272
2019-03-29T05:01:50.296Z,288
2019-03-29T05:03:00.219Z,304
2019-03-29T05:04:10.145Z,320
2019-03-29T05:05:20.072Z,336
2019-03-29T05:06:30.020Z,356
2019-03-29T05:07:41.904Z,380
2019-03-29T05:08:51.955Z,392
2019-03-29T05:10:01.887Z,408
2019-03-29T05:11:11.928Z,424
2019-03-29T05:12:21.857Z,440
2019-03-29T05:13:31.791Z,460
2019-03-29T05:14:41.720Z,476
2019-03-29T05:15:51.646Z,496
2019-03-29T05:17:01.569Z,516
2019-03-29T05:18:11.496Z,536
2019-03-29T05:19:21.420Z,556
2019-03-29T05:20:31.442Z,580
2019-03-29T05:21:41.366Z,604
2019-03-29T05:22:51.304Z,632
2019-03-29T05:24:01.226Z,656
2019-03-29T05:25:11.153Z,684
2019-03-29T05:26:21.178Z,712
2019-03-29T05:27:33.111Z,740
2019-03-29T05:28:43.034Z,784
2019-03-29T05:29:52.957Z,828
2019-03-29T05:31:02.888Z,872
2019-03-29T05:32:12.806Z,916
2019-03-29T05:33:22.729Z,964
2019-03-29T05:34:32.789Z,1020
2019-03-29T05:35:42.743Z,1072
2019-03-29T05:36:52.676Z,1112
2019-03-29T05:38:06.125Z,1148
2019-03-29T05:39:16.054Z,1184
2019-03-29T05:40:39.150Z,1232
2019-03-29T05:41:49.078Z,1264
2019-03-29T05:42:59.001Z,1304
2019-03-29T05:44:09.024Z,1352
2019-03-29T05:45:18.945Z,1416
2019-03-29T05:46:28.988Z,1476
2019-03-29T05:47:38.921Z,1528
2019-03-29T05:48:48.945Z,1548
2019-03-29T05:49:58.864Z,1520
2019-03-29T05:51:08.542Z,1496
2019-03-29T05:52:18.216Z,1520
2019-03-29T05:53:28.136Z,1572
2019-03-29T05:54:38.166Z,1648
2019-03-29T05:55:50.748Z,1772
2019-03-29T05:57:00.739Z,1904
2019-03-29T05:58:10.666Z,2008
2019-03-29T05:59:20.591Z,2104
2019-03-29T06:00:30.624Z,2200
2019-03-29T06:01:40.556Z,2304
2019-03-29T06:02:50.481Z,2464
2019-03-29T06:04:00.410Z,2612
2019-03-29T06:05:10.338Z,2724
2019-03-29T06:06:20.272Z,2828
2019-03-29T06:07:30.195Z,2916
2019-03-29T06:08:40.117Z,2988
2019-03-29T06:09:50.057Z,3084
2019-03-29T06:10:59.979Z,3200
2019-03-29T06:12:10.007Z,3344
2019-03-29T06:13:19.936Z,3440
2019-03-29T06:14:29.864Z,3484
2019-03-29T06:15:39.789Z,3536
2019-03-29T06:16:49.715Z,3580
2019-03-29T06:17:59.690Z,3608
2019-03-29T06:19:09.611Z,3640
2019-03-29T06:20:19.566Z,3644
2019-03-29T06:21:29.494Z,3680
2019-03-29T06:22:39.424Z,3712
2019-03-29T06:23:49.457Z,3796
2019-03-29T06:24:59.380Z,3920
2019-03-29T06:26:09.339Z,4028
2019-03-29T06:27:19.276Z,4116
2019-03-29T06:28:32.335Z,4156
2019-03-29T06:29:42.257Z,4144
2019-03-29T06:30:52.182Z,4112
2019-03-29T06:32:02.102Z,4072
2019-03-29T06:33:12.024Z,4032
2019-03-29T06:34:21.951Z,4044
2019-03-29T06:35:31.936Z,4160
2019-03-29T06:36:41.864Z,4284
2019-03-29T06:37:51.796Z,4336
2019-03-29T06:39:01.725Z,4424
2019-03-29T06:40:11.728Z,4532
2019-03-29T06:41:21.772Z,4672
2019-03-29T06:42:31.727Z,4760
2019-03-29T06:43:41.655Z,4912
2019-03-29T06:44:51.737Z,5200
2019-03-29T06:46:01.661Z,5444
2019-03-29T06:47:11.649Z,5652
2019-03-29T06:48:21.580Z,5772
2019-03-29T06:49:31.516Z,5844
2019-03-29T06:50:41.319Z,5860
2019-03-29T06:51:51.418Z,5992
2019-03-29T06:53:01.393Z,6144
2019-03-29T06:54:11.341Z,6240
2019-03-29T06:55:21.271Z,6256
2019-03-29T06:56:31.289Z,6268
2019-03-29T06:57:41.230Z,6300
2019-03-29T06:58:51.152Z,6372
2019-03-29T07:00:01.072Z,6432
2019-03-29T07:01:10.740Z,6448
2019-03-29T07:02:20.410Z,6468
2019-03-29T07:03:30.332Z,6508
2019-03-29T07:04:40.375Z,6632
2019-03-29T07:05:50.379Z,6684
2019-03-29T07:07:00.308Z,6724
2019-03-29T07:08:10.230Z,6744
2019-03-29T07:09:20.167Z,6796
2019-03-29T07:10:30.198Z,6864
2019-03-29T07:11:42.133Z,6920
2019-03-29T07:12:52.062Z,6908
2019-03-29T07:14:05.343Z,6928
2019-03-29T07:15:15.271Z,6996
2019-03-29T07:16:25.202Z,7076
2019-03-29T07:17:35.129Z,7136
2019-03-29T07:18:45.061Z,7188
2019-03-29T07:19:54.990Z,7224
2019-03-29T07:21:04.913Z,7272
2019-03-29T07:22:28.137Z,7328
2019-03-29T07:23:38.064Z,7408
2019-03-29T07:24:48.088Z,7524
2019-03-29T07:26:01.128Z,7604
2019-03-29T07:27:11.060Z,7688
2019-03-29T07:28:20.926Z,7808
2019-03-29T07:29:30.884Z,7916
2019-03-29T07:30:40.816Z,8032
2019-03-29T07:31:53.039Z,8112
2019-03-29T07:33:03.218Z,8196
2019-03-29T07:34:13.249Z,8268
2019-03-29T07:35:23.194Z,8356
2019-03-29T07:36:33.116Z,8424
2019-03-29T07:37:43.041Z,8476
2019-03-29T07:38:52.980Z,8532
2019-03-29T07:40:02.794Z,8596
2019-03-29T07:41:12.755Z,8664
2019-03-29T07:42:22.693Z,8716
2019-03-29T07:43:32.620Z,8772
2019-03-29T07:44:42.631Z,8832
2019-03-29T07:45:52.607Z,8908
2019-03-29T07:47:02.542Z,8928
2019-03-29T07:48:12.466Z,8960
2019-03-29T07:49:22.398Z,8988
2019-03-29T07:50:32.342Z,9040
2019-03-29T07:51:42.280Z,9136
2019-03-29T07:52:52.204Z,9212
2019-03-29T07:54:02.155Z,9324
2019-03-29T07:55:11.918Z,9416
2019-03-29T07:56:21.851Z,9456
2019-03-29T07:57:31.773Z,9488
2019-03-29T07:58:41.455Z,9516
2019-03-29T07:59:52.880Z,9576
2019-03-29T08:01:02.809Z,9604
2019-03-29T08:02:12.736Z,9648
2019-03-29T08:03:26.268Z,9720
2019-03-29T08:04:36.199Z,9800
2019-03-29T08:05:47.577Z,9892
2019-03-29T08:06:57.507Z,10052
2019-03-29T08:08:07.468Z,10124
2019-03-29T08:09:32.041Z,10076
2019-03-29T08:10:42.965Z,9988
2019-03-29T08:11:55.103Z,9960
2019-03-29T08:13:05.307Z,10024
2019-03-29T08:14:17.358Z,10188
2019-03-29T08:15:27.294Z,10352
2019-03-29T08:16:37.389Z,10500
2019-03-29T08:17:47.361Z,10612
2019-03-29T08:18:57.318Z,10788
2019-03-29T08:20:48.627Z,10988
2019-03-29T08:22:00.298Z,10904
2019-03-29T08:23:10.341Z,10964
2019-03-29T08:24:20.269Z,10916
2019-03-29T08:25:30.195Z,10992
2019-03-29T08:26:40.176Z,11248
2019-03-29T08:27:50.112Z,11432
2019-03-29T08:28:59.788Z,11600
2019-03-29T08:30:09.729Z,11632
2019-03-29T08:31:19.434Z,11608
2019-03-29T08:32:29.370Z,11624
2019-03-29T08:33:39.295Z,11544
2019-03-29T08:34:49.228Z,11424
2019-03-29T08:35:59.163Z,11344
2019-03-29T08:37:09.094Z,11296
2019-03-29T08:38:19.088Z,11356
2019-03-29T08:39:35.329Z,11456
2019-03-29T08:40:47.711Z,11620
2019-03-29T08:42:07.450Z,11912
2019-03-29T08:43:17.484Z,12160
2019-03-29T08:44:27.427Z,12324
2019-03-29T08:45:37.366Z,12444
2019-03-29T08:46:47.315Z,12476
2019-03-29T08:47:57.290Z,12612
2019-03-29T08:49:07.224Z,12656
2019-03-29T08:50:17.282Z,12764
2019-03-29T08:51:26.984Z,12712
2019-03-29T08:52:36.919Z,12656
2019-03-29T08:53:46.848Z,12620
2019-03-29T08:54:58.557Z,12764
2019-03-29T08:56:08.608Z,12788
2019-03-29T08:57:18.544Z,12884
2019-03-29T08:58:28.480Z,13048
2019-03-29T08:59:38.409Z,13200
2019-03-29T09:00:48.340Z,13320
2019-03-29T09:01:58.269Z,13496
2019-03-29T09:03:08.239Z,13460
2019-03-29T09:04:21.387Z,13476
2019-03-29T09:05:31.605Z,13480
2019-03-29T09:06:55.556Z,13324
2019-03-29T09:08:05.483Z,13180
2019-03-29T09:09:17.004Z,13144
2019-03-29T09:10:27.081Z,13128
2019-03-29T09:11:38.864Z,13044
2019-03-29T09:12:49.058Z,13036
2019-03-29T09:13:58.979Z,12892
2019-03-29T09:15:11.159Z,12972
2019-03-29T09:16:21.130Z,13024
2019-03-29T09:17:31.181Z,12988
2019-03-29T09:18:41.131Z,12932
2019-03-29T09:19:51.062Z,12812
2019-03-29T09:21:01.018Z,12784
2019-03-29T09:22:10.946Z,12808
2019-03-29T09:23:20.886Z,12860
2019-03-29T09:24:30.567Z,12964
2019-03-29T09:25:42.947Z,13032
2019-03-29T09:26:52.872Z,13076
2019-03-29T09:28:02.817Z,13152
2019-03-29T09:29:12.815Z,13116
2019-03-29T09:30:22.752Z,13108
2019-03-29T09:31:32.699Z,12944
2019-03-29T09:32:42.641Z,12620
2019-03-29T09:33:52.575Z,12144
2019-03-29T09:35:06.104Z,11716
2019-03-29T09:36:16.029Z,11432
2019-03-29T09:37:26.038Z,11224
2019-03-29T09:38:35.964Z,11028
2019-03-29T09:39:45.893Z,10932
2019-03-29T09:41:05.863Z,10712
2019-03-29T09:42:30.778Z,10532
2019-03-29T09:43:40.826Z,10528
2019-03-29T09:44:50.756Z,10356
2019-03-29T09:46:03.233Z,10372
2019-03-29T09:47:13.121Z,10272
2019-03-29T09:48:23.054Z,10192
2019-03-29T09:49:32.985Z,10184
2019-03-29T09:50:46.298Z,10084
2019-03-29T09:51:58.817Z,10276
2019-03-29T09:53:09.005Z,10264
2019-03-29T09:54:22.768Z,10076
2019-03-29T09:55:32.457Z,10012
2019-03-29T09:56:48.289Z,9868
2019-03-29T09:57:58.362Z,9916
2019-03-29T09:59:08.319Z,9884
2019-03-29T10:00:29.948Z,9848
2019-03-29T10:01:40.279Z,9828
2019-03-29T10:02:50.384Z,9840
2019-03-29T10:04:00.434Z,10100
2019-03-29T10:05:10.366Z,10112
2019-03-29T10:06:22.536Z,9888
2019-03-29T10:07:32.473Z,9492
2019-03-29T10:08:42.503Z,9368
2019-03-29T10:09:52.429Z,9228
2019-03-29T10:11:02.374Z,8920
2019-03-29T10:12:12.303Z,8476
2019-03-29T10:13:22.232Z,8112
2019-03-29T10:14:35.809Z,8016
2019-03-29T10:15:45.741Z,8216
2019-03-29T10:16:58.837Z,7848
2019-03-29T10:18:08.791Z,7608
2019-03-29T10:19:18.737Z,7916
2019-03-29T10:20:28.712Z,7984
2019-03-29T10:21:41.367Z,7976
2019-03-29T10:22:51.384Z,8236
2019-03-29T10:24:01.319Z,7968
2019-03-29T10:25:25.474Z,8068
2019-03-29T10:26:35.395Z,7972
2019-03-29T10:27:45.412Z,7812
2019-03-29T10:28:55.091Z,7852
2019-03-29T10:30:05.155Z,7868
2019-03-29T10:31:15.083Z,8180
2019-03-29T10:32:38.846Z,8172
2019-03-29T10:33:51.470Z,8716
2019-03-29T10:35:01.409Z,8748
2019-03-29T10:36:11.391Z,8832
2019-03-29T10:37:21.319Z,8932
2019-03-29T10:38:31.329Z,8904
2019-03-29T10:39:43.013Z,9384
2019-03-29T10:40:52.950Z,9548
2019-03-29T10:42:02.884Z,9604
2019-03-29T10:43:12.820Z,10212
2019-03-29T10:44:22.769Z,10496
2019-03-29T10:45:36.740Z,10104
2019-03-29T10:46:49.458Z,11136
2019-03-29T10:47:59.494Z,11536
2019-03-29T10:49:09.562Z,11340
2019-03-29T10:50:19.500Z,12204
2019-03-29T10:51:29.444Z,14612
2019-03-29T10:52:39.376Z,14060
2019-03-29T10:53:49.352Z,17032
2019-03-29T10:54:59.323Z,17084
2019-03-29T10:56:09.284Z,16804
2019-03-29T10:57:19.223Z,20288
2019-03-29T10:58:29.161Z,22336
2019-03-29T10:59:38.844Z,20064
2019-03-29T11:00:48.805Z,20960
2019-03-29T11:01:58.750Z,23424
2019-03-29T11:03:08.717Z,24000
2019-03-29T11:04:18.658Z,22208
2019-03-29T11:05:28.585Z,19488
2019-03-29T11:06:38.540Z,20640
2019-03-29T11:07:48.514Z,22112
2019-03-29T11:08:58.457Z,18112
2019-03-29T11:10:08.422Z,17256
2019-03-29T11:11:18.464Z,17824
2019-03-29T11:12:28.396Z,15788
2019-03-29T11:13:40.890Z,19872
2019-03-29T11:14:51.111Z,26464
2019-03-29T11:16:01.042Z,55744
2019-03-29T11:17:10.983Z,64608
2019-03-29T11:18:20.921Z,66528
2019-03-29T11:19:30.861Z,63840
2019-03-29T11:20:40.795Z,63200
2019-03-29T11:21:50.726Z,63008
2019-03-29T11:23:00.407Z,61248
2019-03-29T11:24:13.923Z,64352
2019-03-29T11:25:23.862Z,63360
2019-03-29T11:26:33.797Z,62976
2019-03-29T11:27:43.736Z,62656
2019-03-29T11:28:53.719Z,58272
2019-03-29T11:30:03.668Z,61216
2019-03-29T11:31:13.611Z,59424
2019-03-29T11:32:23.544Z,60512
2019-03-29T11:33:33.480Z,58944
2019-03-29T11:34:43.427Z,56960
2019-03-29T11:35:53.369Z,61184
2019-03-29T11:37:03.055Z,57216
2019-03-29T11:38:12.993Z,59616
2019-03-29T11:39:22.674Z,62464
2019-03-29T11:40:35.175Z,61760
2019-03-29T11:41:45.117Z,61088
2019-03-29T11:42:55.050Z,60352
2019-03-29T11:44:05.066Z,59872
2019-03-29T11:45:15.003Z,63520
2019-03-29T11:46:24.993Z,62752
2019-03-29T11:47:34.925Z,62144
2019-03-29T11:48:44.870Z,63264
2019-03-29T11:49:57.734Z,61376
2019-03-29T11:51:21.605Z,60800
2019-03-29T11:52:33.811Z,61696
2019-03-29T11:53:43.912Z,64160
2019-03-29T11:54:53.601Z,65408
2019-03-29T11:56:03.546Z,64064
2019-03-29T11:57:13.509Z,59104
2019-03-29T11:58:23.447Z,58080
2019-03-29T11:59:33.406Z,57312
2019-03-29T12:00:43.378Z,46976
2019-03-29T12:01:53.314Z,46976
2019-03-29T12:03:03.355Z,48512
2019-03-29T12:04:16.662Z,54272
2019-03-29T12:05:26.612Z,55872
2019-03-29T12:06:36.556Z,58720
2019-03-29T12:07:46.501Z,57600
2019-03-29T12:08:59.504Z,53632
2019-03-29T12:10:09.451Z,56352
2019-03-29T12:11:19.405Z,53344
2019-03-29T12:12:32.415Z,57792
2019-03-29T12:13:48.627Z,57280
2019-03-29T12:14:58.592Z,54848
2019-03-29T12:16:08.529Z,56704
2019-03-29T12:17:18.475Z,54464
2019-03-29T12:18:28.422Z,54912
2019-03-29T12:19:38.408Z,56032
2019-03-29T12:20:48.353Z,56576
2019-03-29T12:22:01.702Z,59392
2019-03-29T12:23:11.648Z,59520
2019-03-29T12:24:21.585Z,61056
2019-03-29T12:25:31.609Z,59712
2019-03-29T12:26:41.569Z,56704
2019-03-29T12:27:51.504Z,59296
2019-03-29T12:29:01.438Z,61344
2019-03-29T12:30:11.379Z,59072
2019-03-29T12:31:38.246Z,61440
2019-03-29T12:32:48.182Z,56192
2019-03-29T12:33:58.127Z,59008
2019-03-29T12:35:09.946Z,63616
2019-03-29T12:36:20.151Z,61888
2019-03-29T12:37:30.147Z,59200
2019-03-29T12:38:40.081Z,60288
2019-03-29T12:39:50.050Z,58432
2019-03-29T12:40:59.997Z,57312
2019-03-29T12:42:09.954Z,57664
2019-03-29T12:43:20.178Z,58592
2019-03-29T12:44:30.120Z,61344
2019-03-29T12:45:40.063Z,61024
2019-03-29T12:46:50.005Z,60608
2019-03-29T12:47:59.961Z,60096
2019-03-29T12:49:09.902Z,59712
2019-03-29T12:50:19.840Z,60032
2019-03-29T12:51:29.784Z,60192
2019-03-29T12:52:39.729Z,61056
2019-03-29T12:53:49.432Z,62656
2019-03-29T12:54:59.421Z,61184
2019-03-29T12:56:09.363Z,60672
2019-03-29T12:57:19.303Z,61696
2019-03-29T12:58:29.329Z,63136
2019-03-29T12:59:40.310Z,64096
2019-03-29T13:00:50.277Z,60704
2019-03-29T13:02:00.221Z,57664
2019-03-29T13:03:09.939Z,59936
2019-03-29T13:04:19.907Z,57504
2019-03-29T13:05:29.872Z,58944
2019-03-29T13:06:39.868Z,61440
2019-03-29T13:07:52.901Z,63712
2019-03-29T13:09:03.078Z,63904
2019-03-29T13:10:13.017Z,66400
2019-03-29T13:11:23.040Z,69728
2019-03-29T13:12:33.055Z,68960
2019-03-29T13:13:43.033Z,63040
2019-03-29T13:14:53.008Z,62912
2019-03-29T13:16:02.949Z,61024
2019-03-29T13:17:12.910Z,60416
2019-03-29T13:18:22.737Z,57024
2019-03-29T13:19:32.673Z,49504
2019-03-29T13:20:42.617Z,55488
2019-03-29T13:21:52.606Z,58784
2019-03-29T13:23:02.549Z,53024
2019-03-29T13:24:15.692Z,50112
2019-03-29T13:25:25.884Z,54368
2019-03-29T13:26:35.819Z,58080
2019-03-29T13:27:45.760Z,54528
2019-03-29T13:28:55.699Z,45312
2019-03-29T13:30:05.442Z,37536
2019-03-29T13:31:15.394Z,34912
2019-03-29T13:32:25.363Z,32672
2019-03-29T13:33:35.317Z,32896
2019-03-29T13:34:45.020Z,32256
2019-03-29T13:35:58.652Z,31040
2019-03-29T13:37:08.595Z,45952
2019-03-29T13:38:20.404Z,44736
2019-03-29T13:39:30.606Z,43808
2019-03-29T13:40:40.550Z,39680
2019-03-29T13:41:50.581Z,32544
2019-03-29T13:43:00.528Z,25760
2019-03-29T13:44:23.137Z,37248
2019-03-29T13:45:36.016Z,49440
2019-03-29T13:46:46.010Z,37952
2019-03-29T13:47:55.947Z,29984
2019-03-29T13:49:06.000Z,22880
2019-03-29T13:50:16.034Z,27328
2019-03-29T13:51:25.972Z,33632
2019-03-29T13:52:38.452Z,41824
2019-03-29T13:53:48.400Z,36928
2019-03-29T13:54:58.344Z,12172
2019-03-29T13:56:08.368Z,18624
2019-03-29T13:57:18.311Z,13960
2019-03-29T13:58:28.243Z,29760
2019-03-29T13:59:38.976Z,29408
2019-03-29T14:00:48.911Z,24672
2019-03-29T14:01:58.857Z,26784
2019-03-29T14:03:08.795Z,34464
2019-03-29T14:04:18.779Z,14572
2019-03-29T14:05:28.710Z,22560
2019-03-29T14:06:38.643Z,15052
2019-03-29T14:07:48.582Z,24096
2019-03-29T14:08:58.516Z,13824
2019-03-29T14:10:08.451Z,26784
2019-03-29T14:11:18.445Z,32896
2019-03-29T14:12:28.396Z,39392
2019-03-29T14:13:38.079Z,44704
2019-03-29T14:14:48.028Z,62016
2019-03-29T14:15:58.055Z,67776
2019-03-29T14:17:08.007Z,65088
2019-03-29T14:18:17.947Z,56576
2019-03-29T14:19:30.658Z,46336
2019-03-29T14:20:40.347Z,44960
2019-03-29T14:21:50.330Z,47168
2019-03-29T14:23:00.271Z,49856
2019-03-29T14:24:09.957Z,54592
2019-03-29T14:25:19.897Z,54912
2019-03-29T14:26:29.903Z,52288
2019-03-29T14:27:39.591Z,50208
2019-03-29T14:28:49.519Z,61792
2019-03-29T14:30:11.484Z,53024
2019-03-29T14:31:21.427Z,50048
2019-03-29T14:32:31.362Z,54848
2019-03-29T14:33:41.309Z,64256
2019-03-29T14:34:51.249Z,55840
2019-03-29T14:36:01.189Z,55168
2019-03-29T14:37:11.130Z,69088
2019-03-29T14:38:21.117Z,70112
2019-03-29T14:39:31.069Z,69440
2019-03-29T14:40:41.003Z,63840
2019-03-29T14:41:50.947Z,63456
2019-03-29T14:43:00.891Z,67456
2019-03-29T14:44:10.931Z,69088
2019-03-29T14:45:20.866Z,69632
2019-03-29T14:46:30.803Z,66720
2019-03-29T14:47:50.174Z,67392
2019-03-29T14:49:00.111Z,68512
2019-03-29T14:50:10.189Z,62304
2019-03-29T14:51:20.125Z,40320
2019-03-29T14:52:30.109Z,62208
2019-03-29T14:53:40.051Z,68992
2019-03-29T14:54:49.989Z,69600
2019-03-29T14:55:59.975Z,69952
2019-03-29T14:57:12.698Z,71136
2019-03-29T14:58:22.633Z,69632
2019-03-29T14:59:32.574Z,66944
2019-03-29T15:00:42.562Z,65056
2019-03-29T15:01:55.925Z,63008
2019-03-29T15:03:05.875Z,66912
2019-03-29T15:04:15.585Z,65696
2019-03-29T15:05:25.520Z,66240
2019-03-29T15:06:35.455Z,66496
2019-03-29T15:07:45.401Z,63040
2019-03-29T15:08:57.066Z,63776
2019-03-29T15:10:07.015Z,65248
2019-03-29T15:11:29.249Z,66880
2019-03-29T15:12:39.247Z,64928
2019-03-29T15:13:49.195Z,66080
2019-03-29T15:15:12.716Z,63328
2019-03-29T15:16:22.669Z,62752
2019-03-29T15:17:32.641Z,59392
2019-03-29T15:18:42.686Z,61184
2019-03-29T15:19:52.627Z,61664
2019-03-29T15:21:02.582Z,61952
2019-03-29T15:22:12.535Z,60576
2019-03-29T15:23:22.525Z,61376
2019-03-29T15:24:32.468Z,58208
2019-03-29T15:25:45.487Z,57760
2019-03-29T15:26:55.520Z,55296
2019-03-29T15:28:05.483Z,51872
2019-03-29T15:29:15.422Z,52608
2019-03-29T15:30:25.414Z,52448
2019-03-29T15:31:35.356Z,52576
2019-03-29T15:32:45.039Z,52512
2019-03-29T15:33:58.002Z,51488
2019-03-29T15:35:07.942Z,51488
2019-03-29T15:36:17.902Z,48896
2019-03-29T15:37:27.844Z,42976
2019-03-29T15:38:37.828Z,36544
2019-03-29T15:39:47.777Z,27680
2019-03-29T15:40:57.725Z,20448
2019-03-29T15:42:07.425Z,20928
2019-03-29T15:43:17.364Z,20640
2019-03-29T15:44:27.299Z,18432
2019-03-29T15:45:37.239Z,15648
2019-03-29T15:46:47.198Z,22528
2019-03-29T15:47:57.201Z,20672
2019-03-29T15:49:07.139Z,16448
2019-03-29T15:50:17.092Z,13220
2019-03-29T15:51:27.029Z,11836
2019-03-29T15:52:36.960Z,13236
2019-03-29T15:53:47.021Z,11572
2019-03-29T15:54:56.957Z,9504